Weather forecast for Shopky (Шопки Лагодів)

Ukraine, 275 m
N49.740, E24.519


Sounding

Red line — air temperature ˚C.
Blue line — thermal bubble temperature ˚C.
Green line — dew point temperature ˚C.
Wind speed is in meters per second.

Table forecast

GFS 0.25˚ model

temp. wind gust humid. clouds prec. press. hpbl
Thu26 00:00 16 233.0 sw 6 17 79 58 0.5 1009 499
03:00 13 281.0 w 4 10 91 50 1.3 1010 236
06:00 11 283.0 wnw 2 3 94 91 0.0 1011 59
09:00 14 310.0 nw 4 6 79 56 0.0 1013 586
12:00 17 318.0 nw 3 4 60 50 0.0 1013 1092
15:00 16 327.0 nnw 2 3 65 74 0.0 1013 796
18:00 12 4.0 n 2 3 83 100 0.4 1013 224
21:00 11 121.0 ese 1 1 89 100 0.9 1014 22
 
Fri27 00:00 10 221.0 sw 2 4 93 100 0.1 1015 129
03:00 10 279.0 w 4 10 92 100 0.1 1016 473
06:00 7 302.0 wnw 4 9 92 95 0.0 1018 314
09:00 9 301.0 wnw 4 6 80 48 0.0 1019 529
12:00 13 302.0 wnw 4 5 60 12 0.0 1019 1280
15:00 14 304.0 nw 4 4 56 28 0.0 1019 1497
18:00 15 312.0 nw 2 3 51 10 0.0 1018 1481
21:00 10 67.0 ene 2 2 66 27 0.0 1019 22
 
Sat28 00:00 8 141.0 se 3 3 73 3 0.0 1020 35
03:00 7 137.0 se 3 3 77 2 0.0 1020 59
06:00 7 138.0 se 3 6 80 0 0.0 1020 125
09:00 12 156.0 sse 6 10 69 13 0.0 1019 445
12:00 17 171.0 s 5 7 59 45 0.0 1019 553
15:00 21 175.0 s 3 4 48 51 0.0 1017 1055
18:00 21 151.0 sse 4 5 59 2 0.0 1016 915
21:00 16 146.0 se 4 9 86 7 0.0 1017 178
 
Sun29 00:00 14 173.0 s 3 4 91 79 0.0 1017 86
03:00 14 191.0 s 2 3 87 88 0.0 1017 24
06:00 13 164.0 sse 3 3 81 100 0.0 1017 36
09:00 17 170.0 s 3 5 72 100 0.0 1017 213
12:00 23 163.0 sse 4 6 59 93 0.0 1016 570
15:00 25 160.0 sse 5 6 50 53 0.0 1015 1352
18:00 24 144.0 se 5 7 61 19 0.0 1014 761
21:00 17 149.0 sse 5 13 67 16 0.0 1014 354
 
Mon30 00:00 15 155.0 sse 5 12 62 97 0.0 1014 249
03:00 13 161.0 sse 4 7 74 56 0.1 1013 126
06:00 12 161.0 sse 4 7 83 0 0.0 1013 126
09:00 16 162.0 sse 4 6 71 0 0.0 1013 216
12:00 22 160.0 sse 3 4 55 0 0.0 1013 460
15:00 24 148.0 sse 3 4 49 0 0.0 1011 863
18:00 23 147.0 sse 4 5 61 0 0.0 1011 681
21:00 18 161.0 sse 4 8 75 33 0.0 1012 162
 

0.018 s